Time;durP1;ratioP1;P1;durP2;ratioP2;P2;SDS_P1;SDS_P2;PMS_P1;PMS_P2;Temp;Humidity;BMP_temperature;BMP_pressure;BME280_temperature;BME280_humidity;BME280_pressure;Samples;Min_cycle;Max_cycle;Signal;HPM_P1;HPM_P2
2022/07/16 00:03:33;;;;;;;2.10;1.60;;;10.40;99.90;;;;;;5031101;28;20608;-83
2022/07/16 00:06:03;;;;;;;2.47;1.40;;;10.30;99.90;;;;;;5032411;28;20201;-83
2022/07/16 00:08:35;;;;;;;3.38;1.27;;;10.30;99.90;;;;;;5031224;28;20206;-84
2022/07/16 00:11:06;;;;;;;1.48;1.10;;;10.40;99.90;;;;;;5032208;28;20203;-83
2022/07/16 00:13:38;;;;;;;2.55;1.60;;;10.50;99.90;;;;;;5031940;28;20215;-83
2022/07/16 00:16:13;;;;;;;1.95;1.40;;;10.50;99.90;;;;;;5033567;28;20251;-83
2022/07/16 00:21:30;;;;;;;3.30;1.38;;;10.60;99.90;;;;;;5030363;28;20231;-82
2022/07/16 00:24:02;;;;;;;3.25;1.33;;;10.80;99.90;;;;;;5028887;28;20201;-82
2022/07/16 00:26:33;;;;;;;2.55;1.38;;;10.80;99.90;;;;;;5029958;28;20204;-82
2022/07/16 00:29:04;;;;;;;2.05;1.35;;;10.90;99.90;;;;;;5030435;28;20209;-83
2022/07/16 00:31:36;;;;;;;2.72;1.42;;;10.90;99.90;;;;;;5030735;28;20585;-82
2022/07/16 00:34:10;;;;;;;1.30;1.20;;;11.00;99.90;;;;;;5031321;28;20193;-83
2022/07/16 00:36:41;;;;;;;2.65;1.48;;;11.00;99.90;;;;;;5029749;28;20239;-82
2022/07/16 00:39:14;;;;;;;2.60;1.65;;;11.00;99.90;;;;;;5029392;28;20239;-82
2022/07/16 00:41:46;;;;;;;3.05;1.33;;;11.10;99.90;;;;;;5030491;28;20768;-82
2022/07/16 00:44:19;;;;;;;1.65;1.40;;;11.10;99.90;;;;;;5031511;28;20225;-82
2022/07/16 00:46:53;;;;;;;1.60;1.30;;;11.20;99.90;;;;;;5032841;28;20559;-82
2022/07/16 00:49:24;;;;;;;1.65;1.20;;;11.30;99.90;;;;;;5035439;28;20196;-83
2022/07/16 00:51:56;;;;;;;2.58;1.40;;;11.50;99.90;;;;;;5029857;28;20199;-84
2022/07/16 00:54:27;;;;;;;2.08;1.42;;;11.60;99.90;;;;;;5034617;28;20238;-84
2022/07/16 00:56:57;;;;;;;3.38;1.45;;;11.70;99.90;;;;;;5030608;28;20185;-84
2022/07/16 00:59:28;;;;;;;3.70;1.60;;;11.70;99.90;;;;;;5030046;28;20225;-83
2022/07/16 01:02:01;;;;;;;2.85;1.50;;;11.80;99.90;;;;;;5038833;28;20267;-86
2022/07/16 01:04:32;;;;;;;2.28;1.52;;;11.80;99.90;;;;;;5034404;28;20216;-85
2022/07/16 01:07:03;;;;;;;1.63;1.30;;;11.90;99.90;;;;;;5034082;28;21649;-86
2022/07/16 01:09:35;;;;;;;2.20;1.65;;;12.00;99.90;;;;;;5029706;28;20217;-83
2022/07/16 01:12:07;;;;;;;4.00;1.30;;;12.10;99.90;;;;;;5025588;28;20734;-83
2022/07/16 01:14:38;;;;;;;2.05;1.70;;;12.10;99.90;;;;;;5022309;28;20219;-82
2022/07/16 01:17:10;;;;;;;3.25;1.65;;;12.10;99.90;;;;;;5024960;28;22122;-83
2022/07/16 01:19:41;;;;;;;1.85;1.50;;;12.10;99.90;;;;;;5023144;28;20224;-83
2022/07/16 01:22:19;;;;;;;2.25;1.58;;;12.10;99.90;;;;;;5029311;28;20769;-83
2022/07/16 01:24:54;;;;;;;4.93;1.60;;;12.10;99.90;;;;;;5029387;28;20861;-82
2022/07/16 01:27:25;;;;;;;2.55;1.90;;;12.20;99.90;;;;;;5031664;28;20224;-85
2022/07/16 01:29:55;;;;;;;2.25;1.70;;;12.20;99.90;;;;;;5029064;28;20192;-86
2022/07/16 01:32:26;;;;;;;3.50;1.80;;;12.20;99.90;;;;;;5024164;28;20221;-86
2022/07/16 01:34:56;;;;;;;3.25;1.90;;;12.30;99.90;;;;;;5024149;28;20307;-86
2022/07/16 01:37:28;;;;;;;3.05;2.00;;;12.30;99.90;;;;;;5028095;28;20221;-86
2022/07/16 01:40:03;;;;;;;1.70;1.45;;;12.40;99.90;;;;;;5033184;28;20287;-85
2022/07/16 01:42:34;;;;;;;3.40;1.58;;;12.40;99.90;;;;;;5033706;28;20235;-86
2022/07/16 01:45:05;;;;;;;5.13;2.65;;;12.40;99.90;;;;;;5033666;28;20212;-84
2022/07/16 01:47:36;;;;;;;4.82;2.65;;;12.50;99.90;;;;;;5030254;28;20201;-84
2022/07/16 01:50:07;;;;;;;5.90;2.75;;;12.60;99.90;;;;;;5033693;28;20208;-86
2022/07/16 01:52:38;;;;;;;4.35;2.42;;;12.60;99.90;;;;;;5029409;28;20824;-84
2022/07/16 01:55:11;;;;;;;4.28;2.70;;;12.60;99.90;;;;;;5029152;28;20690;-86
2022/07/16 01:57:42;;;;;;;4.57;2.30;;;12.60;99.90;;;;;;5033369;28;20227;-83
2022/07/16 02:00:14;;;;;;;5.20;2.30;;;12.60;99.90;;;;;;5033772;28;20213;-86
2022/07/16 02:02:44;;;;;;;5.88;2.80;;;12.70;99.90;;;;;;5034918;28;20238;-82
2022/07/16 02:05:15;;;;;;;5.82;2.55;;;12.80;99.90;;;;;;5029981;28;20209;-82
2022/07/16 02:07:47;;;;;;;3.33;2.35;;;12.90;99.90;;;;;;5029006;28;20200;-81
2022/07/16 02:10:21;;;;;;;2.67;2.05;;;12.80;99.90;;;;;;5027882;28;20209;-83
2022/07/16 02:12:53;;;;;;;2.88;1.95;;;12.80;99.90;;;;;;5030741;28;20213;-83
2022/07/16 02:15:24;;;;;;;3.53;2.10;;;12.90;99.90;;;;;;5029344;28;20204;-82
2022/07/16 02:17:55;;;;;;;4.40;1.90;;;12.90;99.90;;;;;;5029488;28;20243;-85
2022/07/16 02:20:27;;;;;;;3.30;1.80;;;13.00;99.90;;;;;;5040606;28;20223;-84
2022/07/16 02:22:58;;;;;;;2.90;2.20;;;13.10;99.90;;;;;;5048164;28;20310;-82
2022/07/16 02:25:31;;;;;;;3.75;2.00;;;13.20;99.90;;;;;;5042586;28;20203;-84
2022/07/16 02:28:11;;;;;;;3.80;2.13;;;13.20;99.90;;;;;;5057586;28;20649;-83
2022/07/16 02:30:43;;;;;;;4.03;2.15;;;13.20;99.90;;;;;;5041410;28;20203;-84
2022/07/16 02:33:18;;;;;;;6.40;2.15;;;13.20;99.90;;;;;;5060333;28;20208;-84
2022/07/16 02:35:49;;;;;;;2.90;1.95;;;13.30;99.90;;;;;;5050668;28;20192;-84
2022/07/16 02:38:20;;;;;;;4.70;2.30;;;13.30;99.90;;;;;;5049660;28;20228;-83
2022/07/16 02:40:53;;;;;;;2.33;1.80;;;13.40;99.90;;;;;;5057512;28;20560;-84
2022/07/16 02:43:23;;;;;;;2.33;1.95;;;13.50;99.90;;;;;;5050578;28;20651;-83
2022/07/16 02:45:54;;;;;;;2.88;1.73;;;13.60;99.90;;;;;;5050268;28;20200;-84
2022/07/16 02:48:25;;;;;;;3.00;1.80;;;13.60;99.90;;;;;;5058582;28;20203;-84
2022/07/16 02:50:55;;;;;;;3.47;2.00;;;13.50;99.90;;;;;;5053905;28;20582;-83
2022/07/16 02:53:26;;;;;;;2.72;1.80;;;13.50;99.90;;;;;;5061127;28;20199;-84
2022/07/16 02:56:00;;;;;;;2.53;2.05;;;13.50;99.90;;;;;;5047976;28;20195;-84
2022/07/16 02:58:31;;;;;;;2.70;2.08;;;13.60;99.90;;;;;;5066386;28;20184;-84
2022/07/16 03:01:03;;;;;;;2.78;2.30;;;13.60;99.90;;;;;;5069820;28;20188;-83
2022/07/16 03:03:34;;;;;;;3.90;1.90;;;13.70;99.90;;;;;;5061487;28;20220;-83
2022/07/16 03:06:05;;;;;;;2.67;1.80;;;13.70;99.90;;;;;;5041382;28;20280;-84
2022/07/16 03:08:36;;;;;;;3.53;1.90;;;13.70;99.90;;;;;;5046324;28;20201;-83
2022/07/16 03:11:09;;;;;;;3.30;1.95;;;13.80;99.90;;;;;;5052488;28;20257;-84
2022/07/16 03:13:40;;;;;;;2.17;1.70;;;13.90;99.90;;;;;;5061469;28;20659;-84
2022/07/16 03:16:11;;;;;;;3.47;1.88;;;13.90;99.90;;;;;;5061505;28;20193;-84
2022/07/16 03:18:41;;;;;;;4.78;2.60;;;13.90;99.90;;;;;;5063112;28;20251;-84
2022/07/16 03:21:12;;;;;;;2.15;1.90;;;14.00;99.90;;;;;;5062359;28;20224;-84
2022/07/16 03:23:43;;;;;;;4.50;2.50;;;14.00;99.90;;;;;;5043459;28;20613;-84
2022/07/16 03:26:17;;;;;;;3.42;2.13;;;14.10;99.90;;;;;;5051033;28;20197;-84
2022/07/16 03:28:48;;;;;;;4.30;1.98;;;14.10;99.90;;;;;;5060237;28;20185;-82
2022/07/16 03:31:19;;;;;;;2.25;1.80;;;14.30;99.90;;;;;;5051019;28;20192;-84
2022/07/16 03:33:49;;;;;;;5.97;2.75;;;14.30;99.90;;;;;;5043906;28;20292;-83
2022/07/16 03:36:21;;;;;;;2.55;1.67;;;14.50;99.90;;;;;;5047116;28;20201;-83
2022/07/16 03:39:05;;;;;;;2.45;1.77;;;14.50;99.90;;;;;;5047733;28;20228;-84
2022/07/16 03:41:38;;;;;;;2.40;1.45;;;14.60;99.90;;;;;;5049798;28;20598;-84
2022/07/16 03:44:12;;;;;;;3.40;1.73;;;14.70;99.90;;;;;;5049211;28;20871;-82
2022/07/16 03:46:43;;;;;;;2.88;1.70;;;14.80;99.90;;;;;;5048249;28;20200;-85
2022/07/16 03:49:14;;;;;;;1.77;1.38;;;14.80;99.90;;;;;;5046629;28;20185;-83
2022/07/16 03:51:45;;;;;;;3.25;1.70;;;14.90;99.90;;;;;;5050651;28;20189;-82
2022/07/16 03:54:16;;;;;;;2.42;1.55;;;14.90;99.90;;;;;;5046729;28;20220;-82
2022/07/16 03:56:48;;;;;;;2.65;1.55;;;15.10;99.90;;;;;;5048871;28;20236;-84
2022/07/16 03:59:19;;;;;;;2.05;1.50;;;15.10;99.90;;;;;;5052211;28;20181;-84
2022/07/16 04:01:50;;;;;;;2.67;1.48;;;15.20;99.90;;;;;;5055491;28;20203;-87
2022/07/16 04:04:21;;;;;;;2.20;1.52;;;15.20;99.90;;;;;;5053286;28;20235;-87
2022/07/16 04:06:52;;;;;;;2.83;1.92;;;15.20;99.90;;;;;;5062629;28;20197;-87
2022/07/16 04:09:22;;;;;;;2.65;1.67;;;15.20;99.90;;;;;;5050744;28;20200;-86
2022/07/16 04:11:56;;;;;;;2.38;1.73;;;15.20;99.90;;;;;;5049204;28;20189;-86
2022/07/16 04:14:27;;;;;;;2.63;1.70;;;15.20;99.90;;;;;;5050664;28;20197;-85
2022/07/16 04:16:58;;;;;;;3.45;1.75;;;15.30;99.90;;;;;;5049650;28;20200;-85
2022/07/16 04:19:28;;;;;;;3.15;1.70;;;15.40;99.90;;;;;;5047422;28;20220;-86
2022/07/16 04:21:59;;;;;;;4.10;2.03;;;15.40;99.90;;;;;;5048030;28;20888;-85
2022/07/16 04:24:30;;;;;;;2.78;1.90;;;15.40;99.90;;;;;;5047448;28;20693;-85
2022/07/16 04:27:02;;;;;;;2.90;2.00;;;15.40;99.90;;;;;;5048796;28;20204;-85
2022/07/16 04:29:33;;;;;;;2.05;1.85;;;15.50;99.90;;;;;;5048462;28;20189;-87
2022/07/16 04:32:04;;;;;;;2.63;1.50;;;15.50;99.90;;;;;;5048231;28;20279;-86
2022/07/16 04:34:35;;;;;;;2.13;1.52;;;15.60;99.90;;;;;;5048614;28;20217;-87
2022/07/16 04:37:05;;;;;;;1.80;1.40;;;15.70;99.90;;;;;;5047490;28;20197;-84
2022/07/16 04:39:37;;;;;;;3.05;1.38;;;15.70;99.90;;;;;;5047000;28;20220;-84
2022/07/16 04:42:09;;;;;;;1.77;1.40;;;15.70;99.90;;;;;;5048087;28;20199;-83
2022/07/16 04:44:41;;;;;;;2.53;1.40;;;15.80;99.90;;;;;;5049186;28;20227;-83
2022/07/16 04:47:12;;;;;;;1.58;1.30;;;15.80;99.90;;;;;;5048602;28;20205;-84
2022/07/16 04:49:43;;;;;;;1.40;1.10;;;15.70;99.90;;;;;;5048097;28;20242;-80
2022/07/16 04:52:14;;;;;;;2.33;1.25;;;15.70;99.90;;;;;;5044877;28;20209;-86
2022/07/16 04:54:44;;;;;;;1.73;1.10;;;15.70;99.90;;;;;;5045164;28;20219;-83
2022/07/16 04:57:17;;;;;;;1.73;1.20;;;15.60;99.90;;;;;;5044961;28;20204;-86
2022/07/16 04:59:48;;;;;;;4.20;1.63;;;15.60;99.90;;;;;;5047106;28;20205;-84
2022/07/16 05:05:06;;;;;;;1.70;1.40;;;15.60;99.90;;;;;;5048470;28;20211;-84
2022/07/16 05:07:38;;;;;;;2.28;1.60;;;15.60;99.90;;;;;;5046868;28;20876;-85
2022/07/16 05:10:10;;;;;;;1.70;1.45;;;15.60;99.90;;;;;;5046788;28;20192;-85
2022/07/16 05:12:42;;;;;;;1.60;1.50;;;15.60;99.90;;;;;;5048129;28;20651;-84
2022/07/16 05:15:14;;;;;;;1.88;1.30;;;15.60;99.90;;;;;;5048834;28;20207;-87
2022/07/16 05:17:45;;;;;;;2.70;1.52;;;15.60;99.90;;;;;;5047832;28;20197;-86
2022/07/16 05:20:16;;;;;;;6.13;1.58;;;15.50;99.90;;;;;;5048121;28;20197;-85
2022/07/16 05:22:47;;;;;;;2.58;1.50;;;15.50;99.90;;;;;;5044923;28;20189;-85
2022/07/16 05:25:18;;;;;;;1.73;1.50;;;15.50;99.90;;;;;;5047288;28;20215;-85
2022/07/16 05:27:51;;;;;;;2.47;1.58;;;15.40;99.90;;;;;;5047182;28;20664;-86
2022/07/16 05:30:23;;;;;;;2.17;1.33;;;15.40;99.90;;;;;;5046708;28;20231;-85
2022/07/16 05:32:54;;;;;;;1.45;1.35;;;15.40;99.90;;;;;;5048318;28;20552;-85
2022/07/16 05:35:24;;;;;;;3.00;2.65;;;15.40;99.90;;;;;;5045093;28;20755;-77
2022/07/16 05:37:55;;;;;;;3.45;2.80;;;15.30;99.90;;;;;;5043945;28;20220;-79
2022/07/16 05:40:26;;;;;;;4.07;2.60;;;15.30;99.90;;;;;;5043853;28;20208;-78
2022/07/16 05:42:58;;;;;;;4.15;2.30;;;15.30;99.90;;;;;;5045695;28;20659;-78
2022/07/16 05:45:29;;;;;;;4.28;1.90;;;15.20;99.90;;;;;;5044000;28;20200;-78
2022/07/16 05:48:00;;;;;;;2.67;1.90;;;15.20;99.90;;;;;;5043837;28;20207;-78
2022/07/16 05:50:31;;;;;;;5.82;2.03;;;15.20;99.90;;;;;;5044855;28;20671;-78
2022/07/16 05:53:02;;;;;;;3.08;1.80;;;15.10;99.90;;;;;;5042123;28;20200;-78
2022/07/16 05:55:33;;;;;;;2.20;1.70;;;15.10;99.90;;;;;;5044024;28;20205;-77
2022/07/16 05:58:06;;;;;;;2.20;1.73;;;15.00;99.90;;;;;;5044770;28;20208;-78
2022/07/16 06:00:37;;;;;;;2.83;2.00;;;15.00;99.90;;;;;;5043340;28;20270;-80
2022/07/16 06:03:07;;;;;;;4.22;2.03;;;14.90;99.90;;;;;;5041647;28;20221;-78
2022/07/16 06:05:38;;;;;;;4.63;2.10;;;14.90;99.90;;;;;;5044950;28;20185;-79
2022/07/16 06:08:09;;;;;;;4.03;2.33;;;14.80;99.90;;;;;;5044734;28;20197;-79
2022/07/16 06:10:39;;;;;;;3.70;2.15;;;14.80;99.90;;;;;;5044125;28;20212;-80
2022/07/16 06:13:12;;;;;;;4.90;2.47;;;14.80;99.90;;;;;;5045143;28;20205;-78
2022/07/16 06:15:43;;;;;;;3.53;2.00;;;14.80;99.90;;;;;;5044546;28;20189;-78
2022/07/16 06:18:14;;;;;;;5.22;2.50;;;14.70;99.90;;;;;;5044536;28;20401;-79
2022/07/16 06:20:45;;;;;;;4.30;3.63;;;14.70;99.90;;;;;;5044569;28;20200;-78
2022/07/16 06:23:16;;;;;;;8.35;3.67;;;14.70;99.90;;;;;;5041487;28;20220;-77
2022/07/16 06:25:47;;;;;;;4.93;3.20;;;14.70;99.90;;;;;;5043044;28;20212;-78
2022/07/16 06:28:21;;;;;;;7.35;3.05;;;14.60;99.90;;;;;;5044431;28;20192;-80
2022/07/16 06:30:51;;;;;;;3.88;2.85;;;14.60;99.90;;;;;;5043352;28;20193;-78
2022/07/16 06:33:22;;;;;;;8.88;5.00;;;14.60;99.90;;;;;;5044964;28;20268;-80
2022/07/16 06:35:53;;;;;;;6.75;4.55;;;14.60;99.90;;;;;;5044779;28;20204;-80
2022/07/16 06:38:24;;;;;;;5.22;3.10;;;14.60;99.90;;;;;;5044359;28;20960;-78
2022/07/16 06:40:54;;;;;;;5.97;3.85;;;14.60;99.90;;;;;;5042853;28;20673;-78
2022/07/16 06:43:27;;;;;;;4.05;3.65;;;14.50;99.90;;;;;;5044348;28;20220;-78
2022/07/16 06:46:00;;;;;;;6.65;3.50;;;14.50;99.90;;;;;;5041266;28;20238;-79
2022/07/16 06:48:30;;;;;;;4.38;2.78;;;14.40;99.90;;;;;;5043217;28;20220;-77
2022/07/16 06:51:02;;;;;;;4.55;2.42;;;14.40;99.90;;;;;;5045853;28;20204;-77
2022/07/16 06:53:33;;;;;;;4.32;2.40;;;14.40;99.90;;;;;;5039824;28;20203;-76
2022/07/16 06:56:03;;;;;;;8.05;7.25;;;14.30;99.90;;;;;;5042688;28;20196;-75
2022/07/16 06:58:36;;;;;;;11.38;9.05;;;14.30;99.90;;;;;;5044988;28;20712;-76
2022/07/16 07:01:08;;;;;;;8.07;5.80;;;14.30;99.90;;;;;;5043837;28;20197;-75
2022/07/16 07:03:41;;;;;;;6.10;4.78;;;14.30;99.90;;;;;;5044714;28;20259;-75
2022/07/16 07:06:12;;;;;;;5.55;4.13;;;14.30;99.90;;;;;;5043671;28;20571;-77
2022/07/16 07:08:43;;;;;;;4.10;3.08;;;14.30;99.90;;;;;;5043805;28;20667;-77
2022/07/16 07:11:14;;;;;;;3.15;2.65;;;14.30;99.90;;;;;;5042346;28;20294;-77
2022/07/16 07:13:48;;;;;;;3.83;2.75;;;14.20;99.90;;;;;;5045852;28;20914;-76
2022/07/16 07:16:19;;;;;;;5.47;3.58;;;14.20;99.90;;;;;;5045811;28;20660;-76
2022/07/16 07:18:49;;;;;;;15.90;14.40;;;14.20;99.90;;;;;;5047154;28;20220;-76
2022/07/16 07:21:20;;;;;;;7.93;7.20;;;14.20;99.90;;;;;;5047672;28;20251;-80
2022/07/16 07:23:51;;;;;;;6.20;4.57;;;14.20;99.90;;;;;;5046357;28;20574;-80
2022/07/16 07:26:21;;;;;;;3.33;2.45;;;14.10;99.90;;;;;;5047268;28;20604;-81
2022/07/16 07:28:54;;;;;;;3.33;2.40;;;14.10;99.90;;;;;;5048606;28;20243;-88
2022/07/16 07:31:26;;;;;;;3.63;2.10;;;14.00;99.90;;;;;;5049485;28;20735;-87
2022/07/16 07:33:57;;;;;;;3.58;2.70;;;14.00;99.90;;;;;;5048777;28;21806;-84
2022/07/16 07:36:29;;;;;;;5.40;3.58;;;14.00;99.90;;;;;;5049353;28;20201;-84
2022/07/16 07:39:00;;;;;;;6.85;6.00;;;14.00;99.90;;;;;;5044328;28;20229;-80
2022/07/16 07:41:31;;;;;;;6.80;6.10;;;14.00;99.90;;;;;;5048161;28;20215;-80
2022/07/16 07:44:05;;;;;;;8.02;5.65;;;14.00;99.90;;;;;;5049640;28;20239;-84
2022/07/16 07:46:36;;;;;;;8.50;5.70;;;13.90;99.90;;;;;;5048805;28;20215;-84
2022/07/16 07:49:08;;;;;;;6.50;5.47;;;14.00;99.90;;;;;;5048738;28;20251;-82
2022/07/16 07:51:39;;;;;;;9.05;5.82;;;14.00;99.90;;;;;;5045409;28;20201;-77
2022/07/16 07:54:10;;;;;;;5.20;3.70;;;13.90;99.90;;;;;;5044792;28;20211;-77
2022/07/16 07:56:40;;;;;;;7.10;3.80;;;13.90;99.90;;;;;;5046090;28;20217;-77
2022/07/16 07:59:13;;;;;;;5.90;3.65;;;13.90;99.90;;;;;;5049692;28;20208;-79
2022/07/16 08:01:44;;;;;;;4.90;4.25;;;13.90;99.90;;;;;;5044702;28;20608;-80
2022/07/16 08:04:15;;;;;;;5.40;4.90;;;13.90;99.90;;;;;;5049060;28;20232;-80
2022/07/16 08:06:46;;;;;;;5.72;5.00;;;13.90;99.90;;;;;;5048874;28;20197;-80
2022/07/16 08:09:17;;;;;;;5.80;4.80;;;13.80;99.90;;;;;;5044376;28;20201;-75
2022/07/16 08:11:47;;;;;;;11.07;8.63;;;13.80;99.90;;;;;;5046874;28;20200;-79
2022/07/16 08:14:20;;;;;;;13.35;10.63;;;13.80;99.90;;;;;;5046390;28;20259;-75
2022/07/16 08:16:51;;;;;;;10.95;9.02;;;13.70;99.90;;;;;;5047090;28;20645;-75
2022/07/16 08:19:22;;;;;;;14.00;11.07;;;13.70;99.90;;;;;;5045530;28;20610;-75
2022/07/16 08:21:54;;;;;;;13.07;10.27;;;13.70;99.90;;;;;;5046491;28;20219;-75
2022/07/16 08:27:12;;;;;;;11.75;8.48;;;13.70;99.90;;;;;;5046991;28;20220;-75
2022/07/16 08:29:45;;;;;;;8.40;6.75;;;13.60;99.90;;;;;;5047909;28;20207;-81
2022/07/16 08:32:15;;;;;;;5.63;4.38;;;13.60;99.90;;;;;;5047116;28;20217;-80
2022/07/16 08:34:46;;;;;;;7.97;4.25;;;13.60;99.90;;;;;;5043652;28;21938;-76
2022/07/16 08:37:17;;;;;;;8.45;5.32;;;13.60;99.90;;;;;;5045958;28;20901;-77
2022/07/16 08:39:48;;;;;;;24.38;21.70;;;13.70;99.90;;;;;;5045150;28;20204;-75
2022/07/16 08:42:19;;;;;;;19.15;14.77;;;13.70;99.90;;;;;;5047819;28;20219;-76
2022/07/16 08:44:52;;;;;;;15.93;9.35;;;13.80;99.90;;;;;;5045688;28;20216;-75
2022/07/16 08:47:23;;;;;;;5.93;4.65;;;13.90;99.90;;;;;;5046213;28;20220;-76
2022/07/16 08:49:55;;;;;;;4.55;3.75;;;13.90;99.90;;;;;;5044214;28;20208;-76
2022/07/16 08:52:28;;;;;;;5.75;3.63;;;13.80;99.90;;;;;;5045460;28;20200;-74
2022/07/16 08:54:59;;;;;;;3.72;3.33;;;13.80;99.90;;;;;;5044765;28;20207;-74
2022/07/16 08:57:31;;;;;;;4.80;3.20;;;13.70;99.90;;;;;;5044241;28;20208;-74
2022/07/16 09:00:04;;;;;;;4.43;3.60;;;13.70;99.90;;;;;;5045283;28;20209;-74
2022/07/16 09:02:35;;;;;;;4.43;3.45;;;13.70;99.90;;;;;;5045364;28;20232;-74
2022/07/16 09:05:06;;;;;;;5.22;3.90;;;13.70;99.90;;;;;;5045494;28;20700;-75
2022/07/16 09:07:37;;;;;;;6.40;4.07;;;13.70;99.90;;;;;;5046906;28;20203;-74
2022/07/16 09:10:10;;;;;;;5.10;4.13;;;13.70;99.90;;;;;;5043644;28;20203;-74
2022/07/16 09:12:42;;;;;;;4.72;4.00;;;13.70;99.90;;;;;;5047171;28;20634;-75
2022/07/16 09:15:34;;;;;;;4.75;4.10;;;13.70;99.90;;;;;;5043366;28;20329;-74
2022/07/16 09:18:15;;;;;;;5.60;4.13;;;13.70;99.90;;;;;;5043851;28;20201;-75
2022/07/16 09:20:48;;;;;;;5.80;4.60;;;13.70;99.90;;;;;;5042681;28;20201;-75
2022/07/16 09:23:37;;;;;;;7.00;6.30;;;13.70;99.90;;;;;;5041862;28;20200;-74
2022/07/16 09:26:09;;;;;;;8.45;6.85;;;13.70;99.90;;;;;;5042923;28;20228;-75
2022/07/16 09:28:44;;;;;;;13.65;11.90;;;13.70;99.90;;;;;;5045985;28;20273;-74
2022/07/16 09:31:39;;;;;;;8.50;7.53;;;13.70;99.90;;;;;;5043453;28;20184;-74
2022/07/16 09:34:12;;;;;;;5.65;4.70;;;13.70;99.90;;;;;;5040883;28;20197;-74
2022/07/16 09:36:43;;;;;;;4.53;2.90;;;13.60;99.90;;;;;;5043662;28;20201;-74
2022/07/16 09:39:15;;;;;;;2.22;2.00;;;13.60;99.90;;;;;;5043541;28;20223;-75
2022/07/16 09:41:48;;;;;;;2.38;1.95;;;13.70;99.90;;;;;;5043833;28;20617;-75
2022/07/16 09:44:20;;;;;;;3.80;1.70;;;13.70;99.90;;;;;;5046022;28;20228;-75
2022/07/16 09:47:05;;;;;;;1.35;1.25;;;13.80;99.90;;;;;;5043421;28;20208;-74
2022/07/16 09:49:37;;;;;;;1.67;1.40;;;13.80;99.90;;;;;;5041584;28;20220;-74
2022/07/16 09:52:08;;;;;;;1.90;1.73;;;13.90;99.90;;;;;;5045508;28;20192;-74
2022/07/16 09:54:40;;;;;;;2.78;1.45;;;14.00;99.90;;;;;;5044736;28;20201;-75
2022/07/16 09:57:16;;;;;;;1.52;1.40;;;14.10;99.90;;;;;;5045729;28;20205;-75
2022/07/16 09:59:47;;;;;;;1.88;1.30;;;14.10;99.90;;;;;;5043606;28;20261;-75
2022/07/16 10:02:20;;;;;;;1.58;1.20;;;14.20;99.90;;;;;;5044113;28;20327;-75
2022/07/16 10:04:51;;;;;;;1.33;1.23;;;14.30;99.90;;;;;;5043180;28;20225;-76
2022/07/16 10:07:22;;;;;;;0.85;0.85;;;14.40;99.90;;;;;;5043081;28;20205;-76
2022/07/16 10:09:52;;;;;;;1.02;0.90;;;14.40;99.90;;;;;;5045014;28;20200;-75
2022/07/16 10:12:24;;;;;;;1.27;1.10;;;14.40;99.90;;;;;;5044396;28;20200;-76
2022/07/16 10:14:57;;;;;;;0.80;0.80;;;14.50;99.90;;;;;;5044193;28;20542;-75
2022/07/16 10:17:36;;;;;;;0.60;0.60;;;14.50;99.90;;;;;;5043820;28;20208;-75
2022/07/16 10:20:09;;;;;;;0.70;0.70;;;14.60;99.90;;;;;;5042511;28;20636;-75
2022/07/16 10:22:41;;;;;;;1.08;0.60;;;14.70;99.90;;;;;;5042586;28;20291;-75
2022/07/16 10:25:16;;;;;;;0.88;0.60;;;14.70;99.90;;;;;;5041873;28;20224;-75
2022/07/16 10:27:47;;;;;;;0.60;0.60;;;14.80;99.90;;;;;;5045481;28;20204;-75
2022/07/16 10:30:25;;;;;;;0.73;0.70;;;14.80;99.90;;;;;;5043506;28;20193;-75
2022/07/16 10:33:17;;;;;;;1.05;0.82;;;14.80;99.90;;;;;;5042673;28;20196;-75
2022/07/16 10:35:50;;;;;;;1.27;0.77;;;14.90;99.90;;;;;;5042328;28;20258;-75
2022/07/16 10:38:23;;;;;;;0.70;0.65;;;15.00;99.90;;;;;;5043699;28;20286;-75
2022/07/16 10:41:13;;;;;;;0.93;0.57;;;15.00;99.90;;;;;;5045687;28;20212;-76
2022/07/16 10:43:44;;;;;;;0.88;0.88;;;15.00;99.90;;;;;;5043054;28;20221;-75
2022/07/16 10:46:27;;;;;;;0.57;0.55;;;15.00;99.90;;;;;;5043479;28;20568;-75
2022/07/16 10:49:20;;;;;;;1.17;0.73;;;15.00;99.90;;;;;;5045127;28;20189;-75
2022/07/16 10:52:03;;;;;;;1.27;0.80;;;14.90;99.90;;;;;;5046870;28;20556;-75
2022/07/16 10:54:35;;;;;;;0.57;0.57;;;14.90;99.90;;;;;;5044641;28;20291;-75
2022/07/16 10:57:07;;;;;;;1.00;0.90;;;14.90;99.90;;;;;;5047910;28;20549;-75
2022/07/16 10:59:39;;;;;;;0.85;0.70;;;14.90;99.90;;;;;;5049143;28;20196;-75
2022/07/16 11:02:12;;;;;;;1.05;0.80;;;14.90;99.90;;;;;;5046820;28;20193;-76
2022/07/16 11:04:46;;;;;;;1.30;0.90;;;14.90;99.90;;;;;;5048565;28;20224;-75
2022/07/16 11:07:18;;;;;;;0.73;0.73;;;14.80;99.90;;;;;;5045581;28;20196;-75
2022/07/16 11:09:49;;;;;;;0.85;0.70;;;14.80;99.90;;;;;;5043240;28;20224;-75
2022/07/16 11:12:21;;;;;;;1.13;0.80;;;14.70;99.90;;;;;;5048803;28;20201;-75
2022/07/16 11:14:53;;;;;;;1.63;0.90;;;14.70;99.90;;;;;;5048202;28;20197;-75
2022/07/16 11:17:24;;;;;;;1.30;0.70;;;14.70;99.90;;;;;;5047191;28;20717;-75
2022/07/16 11:20:03;;;;;;;1.20;0.98;;;14.70;99.90;;;;;;5047563;28;20193;-75
2022/07/16 11:22:34;;;;;;;0.98;0.90;;;14.70;99.90;;;;;;5047934;28;20208;-75
2022/07/16 11:25:07;;;;;;;1.00;0.85;;;14.60;99.90;;;;;;5048205;28;20243;-76
2022/07/16 11:27:41;;;;;;;0.82;0.82;;;14.50;99.90;;;;;;5046363;28;20663;-79
2022/07/16 11:30:15;;;;;;;0.70;0.70;;;14.50;99.90;;;;;;5047852;28;20195;-79
2022/07/16 11:32:47;;;;;;;0.80;0.80;;;14.50;99.90;;;;;;5051026;28;20587;-78
2022/07/16 11:35:20;;;;;;;3.42;0.90;;;14.50;99.90;;;;;;5049351;28;20196;-79
2022/07/16 11:37:55;;;;;;;0.85;0.80;;;14.50;99.90;;;;;;5049054;28;20897;-80
2022/07/16 11:40:36;;;;;;;2.00;0.70;;;14.40;99.90;;;;;;5049556;28;20192;-78
2022/07/16 11:43:07;;;;;;;0.80;0.70;;;14.40;99.90;;;;;;5049662;28;20688;-77
2022/07/16 11:45:44;;;;;;;1.13;0.80;;;14.40;99.90;;;;;;5047516;28;20229;-81
2022/07/16 11:48:16;;;;;;;0.60;0.55;;;14.40;99.90;;;;;;5048679;28;20201;-77
2022/07/16 11:50:50;;;;;;;1.17;0.90;;;14.30;99.90;;;;;;5049212;28;20207;-78
2022/07/16 11:53:32;;;;;;;0.80;0.80;;;14.30;99.90;;;;;;5049215;28;20189;-80
2022/07/16 11:56:03;;;;;;;0.90;0.80;;;14.20;99.90;;;;;;5046633;28;20203;-79
2022/07/16 11:58:33;;;;;;;0.70;0.70;;;14.20;99.90;;;;;;5047378;28;20208;-80
2022/07/16 12:01:04;;;;;;;0.95;0.80;;;14.20;99.90;;;;;;5046338;28;20907;-78
2022/07/16 12:03:35;;;;;;;0.80;0.80;;;14.10;99.90;;;;;;5048110;28;20652;-80
2022/07/16 12:06:09;;;;;;;1.00;0.90;;;14.00;99.90;;;;;;5050089;28;20216;-78
2022/07/16 12:08:54;;;;;;;1.98;0.85;;;14.00;99.90;;;;;;5046307;28;20245;-80
2022/07/16 12:11:32;;;;;;;0.75;0.70;;;14.00;99.90;;;;;;5048861;28;20660;-76
2022/07/16 12:14:04;;;;;;;1.13;1.02;;;14.00;99.90;;;;;;5048209;28;20679;-77
2022/07/16 12:16:34;;;;;;;0.80;0.70;;;14.00;99.90;;;;;;5048814;28;20672;-78
2022/07/16 12:19:08;;;;;;;0.98;0.80;;;13.90;99.90;;;;;;5047599;28;20240;-77
2022/07/16 12:21:42;;;;;;;1.08;0.90;;;13.90;99.90;;;;;;5048376;28;20196;-81
2022/07/16 12:24:13;;;;;;;1.10;1.00;;;13.80;99.90;;;;;;5047365;28;20200;-79
2022/07/16 12:26:45;;;;;;;1.92;0.90;;;13.80;99.90;;;;;;5047739;28;20232;-77
2022/07/16 12:29:15;;;;;;;0.95;0.85;;;13.80;99.90;;;;;;5048478;28;20193;-79
2022/07/16 12:31:46;;;;;;;2.70;0.98;;;13.70;99.90;;;;;;5044210;28;20228;-79
2022/07/16 12:34:17;;;;;;;2.45;1.15;;;13.70;99.90;;;;;;5045015;28;20896;-79
2022/07/16 12:36:49;;;;;;;1.10;0.90;;;13.70;99.90;;;;;;5049365;28;20205;-79
2022/07/16 12:39:23;;;;;;;0.80;0.77;;;13.70;99.90;;;;;;5046952;28;20299;-80
2022/07/16 12:41:54;;;;;;;0.82;0.82;;;13.60;99.90;;;;;;5048421;28;20242;-84
2022/07/16 12:44:25;;;;;;;1.40;1.02;;;13.60;99.90;;;;;;5047191;28;20294;-83
2022/07/16 12:46:57;;;;;;;1.20;0.90;;;13.60;99.90;;;;;;5045605;28;20232;-88
2022/07/16 12:49:31;;;;;;;2.25;0.90;;;13.50;99.90;;;;;;5050013;28;20189;-81
2022/07/16 12:52:04;;;;;;;1.10;1.00;;;13.50;99.90;;;;;;5046923;28;20239;-79
2022/07/16 13:00:05;;;;;;;0.90;0.90;;;13.40;99.90;;;;;;5045883;28;20243;-79
2022/07/16 13:02:35;;;;;;;1.20;0.90;;;13.40;99.90;;;;;;5046272;28;20691;-81
2022/07/16 13:05:07;;;;;;;1.00;0.90;;;13.40;99.90;;;;;;5046250;28;20194;-79
2022/07/16 13:07:39;;;;;;;0.80;0.80;;;13.40;99.90;;;;;;5046082;28;20247;-78
2022/07/16 13:10:12;;;;;;;0.82;0.82;;;13.40;99.90;;;;;;5045692;28;20205;-79
2022/07/16 13:12:43;;;;;;;1.80;0.90;;;13.40;99.90;;;;;;5046475;28;20192;-79
2022/07/16 13:15:16;;;;;;;0.90;0.80;;;13.30;99.90;;;;;;5043212;28;20196;-79
2022/07/16 13:17:47;;;;;;;0.88;0.73;;;13.30;99.90;;;;;;5047183;28;20193;-79
2022/07/16 13:20:17;;;;;;;1.77;1.15;;;13.30;99.90;;;;;;5046004;28;20193;-77
2022/07/16 13:22:50;;;;;;;1.58;0.80;;;13.30;99.90;;;;;;5047789;28;20356;-81
2022/07/16 13:25:21;;;;;;;1.17;0.80;;;13.30;99.90;;;;;;5052649;28;20216;-81
2022/07/16 13:27:51;;;;;;;1.52;0.85;;;13.40;99.90;;;;;;5046729;28;20200;-80